Time;durP1;ratioP1;P1;durP2;ratioP2;P2;SDS_P1;SDS_P2;PMS_P1;PMS_P2;Temp;Humidity;BMP_temperature;BMP_pressure;BME280_temperature;BME280_humidity;BME280_pressure;Samples;Min_cycle;Max_cycle;Signal;HPM_P1;HPM_P2
2023/10/28 00:00:55;;;;;;;;;;;;;;;20.92;59.07;95977.09;604116;235;68434;-67
2023/10/28 00:03:23;;;;;;;;;;;;;;;20.92;59.17;95979.77;604196;235;64850;-67
2023/10/28 00:05:50;;;;;;;;;;;;;;;20.92;59.20;95987.78;604174;235;68566;-67
2023/10/28 00:08:18;;;;;;;;;;;;;;;20.92;59.09;95979.77;604217;235;67984;-68
2023/10/28 00:10:46;;;;;;;;;;;;;;;20.92;59.13;95982.44;604220;235;64668;-67
2023/10/28 00:13:14;;;;;;;;;;;;;;;20.92;59.92;95985.11;604181;235;66041;-67
2023/10/28 00:15:42;;;;;;;;;;;;;;;20.92;59.91;95987.78;604140;235;68645;-67
2023/10/28 00:18:09;;;;;;;;;;;;;;;20.92;60.08;95981.66;604188;235;64597;-67
2023/10/28 00:20:37;;;;;;;;;;;;;;;20.92;59.69;95995.80;604152;235;66156;-67
2023/10/28 00:23:05;;;;;;;;;;;;;;;20.91;58.72;95994.22;604196;235;68438;-67
2023/10/28 00:25:33;;;;;;;;;;;;;;;20.92;58.90;95981.66;604169;235;62707;-67
2023/10/28 00:28:01;;;;;;;;;;;;;;;20.92;59.35;95987.78;604148;235;66392;-67
2023/10/28 00:30:28;;;;;;;;;;;;;;;20.92;59.20;95990.45;604160;235;68420;-67
2023/10/28 00:33:00;;;;;;;;;;;;;;;20.92;59.13;95992.34;604179;235;64639;-67
2023/10/28 00:35:28;;;;;;;;;;;;;;;20.91;58.90;95986.21;604217;235;69063;-67
2023/10/28 00:37:56;;;;;;;;;;;;;;;20.92;59.40;95974.43;604196;235;68375;-67
2023/10/28 00:40:29;;;;;;;;;;;;;;;20.92;59.37;95974.43;604156;235;64618;-67
2023/10/28 00:42:56;;;;;;;;;;;;;;;20.91;59.38;95988.88;604038;235;68956;-68
2023/10/28 00:45:24;;;;;;;;;;;;;;;20.91;60.98;95972.86;604188;235;66133;-67
2023/10/28 00:47:54;;;;;;;;;;;;;;;20.91;61.46;95980.87;604249;235;64858;-68
2023/10/28 00:50:23;;;;;;;;;;;;;;;20.90;59.54;95979.30;604200;235;68857;-69
2023/10/28 00:52:54;;;;;;;;;;;;;;;20.90;58.63;95973.95;604203;235;68464;-68
2023/10/28 00:55:23;;;;;;;;;;;;;;;20.91;58.56;95985.42;604204;235;63607;-68
2023/10/28 00:57:51;;;;;;;;;;;;;;;20.91;58.83;95986.21;604213;235;68560;-69
2023/10/28 01:00:20;;;;;;;;;;;;;;;20.92;59.53;95992.34;604172;235;69265;-68
2023/10/28 01:02:48;;;;;;;;;;;;;;;20.92;59.91;95987.00;604212;235;64778;-68
2023/10/28 01:05:16;;;;;;;;;;;;;;;20.91;60.04;95982.75;604184;235;65934;-68
2023/10/28 01:07:45;;;;;;;;;;;;;;;20.91;60.29;95986.21;604204;235;68324;-68
2023/10/28 01:10:13;;;;;;;;;;;;;;;20.91;60.34;95980.08;604187;235;62459;-68
2023/10/28 01:12:40;;;;;;;;;;;;;;;20.90;60.35;95989.98;604193;235;68519;-68
2023/10/28 01:15:08;;;;;;;;;;;;;;;20.91;59.99;95999.56;604230;235;66311;-68
2023/10/28 01:17:35;;;;;;;;;;;;;;;20.91;60.53;96012.91;604187;235;64671;-68
2023/10/28 01:20:05;;;;;;;;;;;;;;;20.91;59.87;96018.26;604191;235;69080;-68
2023/10/28 01:22:32;;;;;;;;;;;;;;;20.90;59.45;96016.69;604206;235;68034;-68
2023/10/28 01:25:00;;;;;;;;;;;;;;;20.90;58.47;96022.02;604207;235;64830;-68
2023/10/28 01:27:27;;;;;;;;;;;;;;;20.90;58.33;96019.36;604207;235;69380;-68
2023/10/28 01:29:55;;;;;;;;;;;;;;;20.90;58.67;96011.34;604160;235;69492;-68
2023/10/28 01:32:23;;;;;;;;;;;;;;;20.91;58.89;96015.59;599386;235;66321;-68
2023/10/28 01:34:52;;;;;;;;;;;;;;;20.91;58.42;96022.81;604194;235;68625;-68
2023/10/28 01:37:21;;;;;;;;;;;;;;;20.90;58.29;96016.69;604110;235;68264;-67
2023/10/28 01:39:50;;;;;;;;;;;;;;;20.91;58.35;96023.59;604233;235;64894;-67
2023/10/28 01:42:19;;;;;;;;;;;;;;;20.90;58.33;96011.34;604156;235;66358;-67
2023/10/28 01:44:47;;;;;;;;;;;;;;;20.91;58.85;96009.45;604191;235;68464;-67
2023/10/28 01:47:15;;;;;;;;;;;;;;;20.91;59.45;96006.79;604208;235;62454;-67
2023/10/28 01:49:43;;;;;;;;;;;;;;;20.91;59.37;96006.79;604195;235;68953;-67
2023/10/28 01:52:12;;;;;;;;;;;;;;;20.91;60.05;96006.79;604239;235;68448;-67
2023/10/28 01:54:40;;;;;;;;;;;;;;;20.91;61.62;96014.80;604149;235;64621;-67
2023/10/28 01:57:09;;;;;;;;;;;;;;;20.89;61.15;96015.08;604182;235;67064;-67
2023/10/28 01:59:37;;;;;;;;;;;;;;;20.89;60.29;96009.73;604166;235;68465;-67
2023/10/28 02:02:05;;;;;;;;;;;;;;;20.89;60.39;96012.41;602920;235;62347;-67
2023/10/28 02:04:33;;;;;;;;;;;;;;;20.89;60.65;96009.73;602320;235;68501;-67
2023/10/28 02:07:01;;;;;;;;;;;;;;;20.89;60.37;96031.10;602305;235;66457;-67
2023/10/28 02:09:29;;;;;;;;;;;;;;;20.89;59.32;96033.77;602296;235;64922;-67
2023/10/28 02:11:56;;;;;;;;;;;;;;;20.90;59.07;96039.91;602331;235;65799;-68
2023/10/28 02:14:24;;;;;;;;;;;;;;;20.90;59.94;96043.39;602323;235;66190;-68
2023/10/28 02:16:53;;;;;;;;;;;;;;;20.89;59.88;96055.14;602313;235;64899;-69
2023/10/28 02:19:21;;;;;;;;;;;;;;;20.89;60.49;96057.02;602338;235;68235;-68
2023/10/28 02:21:49;;;;;;;;;;;;;;;20.90;60.77;96056.74;602280;235;68201;-68
2023/10/28 02:24:20;;;;;;;;;;;;;;;20.89;60.65;96055.14;602321;235;64657;-68
2023/10/28 02:26:47;;;;;;;;;;;;;;;20.89;60.80;96052.47;602342;235;68393;-68
2023/10/28 02:29:15;;;;;;;;;;;;;;;20.87;60.49;96049.32;602306;235;68073;-68
2023/10/28 02:31:42;;;;;;;;;;;;;;;20.88;60.36;96058.91;602351;235;64704;-67
2023/10/28 02:34:11;;;;;;;;;;;;;;;20.89;59.96;96054.35;602261;235;65798;-67
2023/10/28 02:36:39;;;;;;;;;;;;;;;20.88;60.74;96048.23;602166;235;68946;-67
2023/10/28 02:39:07;;;;;;;;;;;;;;;20.88;60.60;96050.89;602294;235;64687;-67
2023/10/28 02:41:34;;;;;;;;;;;;;;;20.88;61.28;96050.89;602319;235;66313;-67
2023/10/28 02:44:03;;;;;;;;;;;;;;;20.88;61.27;96056.23;602305;235;68869;-67
2023/10/28 02:46:31;;;;;;;;;;;;;;;20.88;60.55;96066.13;602313;235;64709;-67
2023/10/28 02:48:58;;;;;;;;;;;;;;;20.88;60.40;96063.46;602259;235;68401;-67
2023/10/28 02:51:26;;;;;;;;;;;;;;;20.88;60.64;96069.59;602297;235;66135;-67
2023/10/28 02:53:53;;;;;;;;;;;;;;;20.89;61.58;96065.03;602292;235;62351;-67
2023/10/28 02:56:22;;;;;;;;;;;;;;;20.87;60.94;96068.02;602277;235;68943;-67
2023/10/28 02:58:49;;;;;;;;;;;;;;;20.87;60.88;96065.34;602343;235;68528;-67
2023/10/28 03:01:17;;;;;;;;;;;;;;;20.88;61.42;96060.79;602234;235;62328;-67
2023/10/28 03:03:46;;;;;;;;;;;;;;;20.88;60.71;96047.44;602282;235;68269;-67
2023/10/28 03:06:13;;;;;;;;;;;;;;;20.86;60.12;96061.07;602305;235;66124;-67
2023/10/28 03:08:41;;;;;;;;;;;;;;;20.87;60.00;96064.52;602256;235;65516;-67
2023/10/28 03:11:09;;;;;;;;;;;;;;;20.88;59.77;96066.92;602313;235;68836;-67
2023/10/28 03:13:36;;;;;;;;;;;;;;;20.89;59.54;96073.05;602291;235;66117;-67
2023/10/28 03:16:04;;;;;;;;;;;;;;;20.88;59.69;96061.58;602278;235;62357;-67
2023/10/28 03:18:32;;;;;;;;;;;;;;;20.87;59.97;96076.03;602267;235;68566;-67
2023/10/28 03:21:00;;;;;;;;;;;;;;;20.88;59.54;96076.81;602286;235;66024;-67
2023/10/28 03:23:28;;;;;;;;;;;;;;;20.87;59.27;96094.72;602327;232;62751;-68
2023/10/28 03:25:55;;;;;;;;;;;;;;;20.88;58.90;96109.65;602300;235;68769;-68
2023/10/28 03:28:23;;;;;;;;;;;;;;;20.88;58.40;96116.88;602235;235;66232;-68
2023/10/28 03:30:51;;;;;;;;;;;;;;;20.88;58.35;96109.65;602239;235;64719;-68
2023/10/28 03:33:18;;;;;;;;;;;;;;;20.89;59.32;96113.89;602272;235;69775;-68
2023/10/28 03:35:46;;;;;;;;;;;;;;;20.88;60.89;96114.98;602326;235;68692;-67
2023/10/28 03:38:13;;;;;;;;;;;;;;;20.88;61.81;96114.20;602253;235;62370;-67
2023/10/28 03:40:41;;;;;;;;;;;;;;;20.87;61.82;96123.28;602282;235;68975;-67
2023/10/28 03:43:09;;;;;;;;;;;;;;;20.87;62.24;96120.61;602247;235;68598;-67
2023/10/28 03:45:37;;;;;;;;;;;;;;;20.87;62.46;96113.41;602252;235;62371;-67
2023/10/28 03:48:05;;;;;;;;;;;;;;;20.87;61.94;96125.95;602318;235;68969;-67
2023/10/28 03:50:33;;;;;;;;;;;;;;;20.85;61.83;96131.59;602311;235;68438;-67
2023/10/28 03:53:00;;;;;;;;;;;;;;;20.86;61.99;96133.17;602279;235;64741;-67
2023/10/28 03:55:28;;;;;;;;;;;;;;;20.85;62.10;96131.59;602224;235;66365;-68
2023/10/28 03:57:55;;;;;;;;;;;;;;;20.86;62.81;96141.19;602247;235;66659;-68
2023/10/28 04:00:23;;;;;;;;;;;;;;;20.85;63.18;96136.94;602241;235;64694;-67
2023/10/28 04:02:50;;;;;;;;;;;;;;;20.85;62.94;96139.61;602272;235;68675;-67
2023/10/28 04:05:18;;;;;;;;;;;;;;;20.84;62.78;96140.67;602272;235;66449;-67
2023/10/28 04:07:45;;;;;;;;;;;;;;;20.84;61.75;96138.00;602246;235;64606;-67
2023/10/28 04:10:13;;;;;;;;;;;;;;;20.84;61.25;96151.36;602257;235;68639;-67
2023/10/28 04:12:41;;;;;;;;;;;;;;;20.85;60.85;96152.96;602258;235;68689;-67
2023/10/28 04:15:09;;;;;;;;;;;;;;;20.85;60.02;96155.63;602322;235;64741;-67
2023/10/28 04:17:37;;;;;;;;;;;;;;;20.87;60.34;96166.01;602267;235;68642;-68
2023/10/28 04:20:05;;;;;;;;;;;;;;;20.84;60.15;96168.20;602286;235;68599;-68
2023/10/28 04:22:32;;;;;;;;;;;;;;;20.86;60.23;96167.10;602253;235;64609;-68
2023/10/28 04:25:00;;;;;;;;;;;;;;;20.86;60.26;96169.77;602265;235;68892;-68
2023/10/28 04:27:27;;;;;;;;;;;;;;;20.86;60.80;96172.45;602321;235;68615;-68
2023/10/28 04:29:55;;;;;;;;;;;;;;;20.86;60.85;96183.91;602287;235;64694;-68
2023/10/28 04:32:27;;;;;;;;;;;;;;;20.85;60.31;96185.01;602302;232;66310;-68
2023/10/28 04:34:55;;;;;;;;;;;;;;;20.85;60.32;96187.68;602308;235;66424;-68
2023/10/28 04:37:22;;;;;;;;;;;;;;;20.85;61.13;96190.35;602281;235;64615;-69
2023/10/28 04:39:51;;;;;;;;;;;;;;;20.85;60.92;96193.02;602342;235;66647;-68
2023/10/28 04:42:21;;;;;;;;;;;;;;;20.84;60.60;96186.89;602286;235;68836;-68
2023/10/28 04:44:49;;;;;;;;;;;;;;;20.85;61.37;96193.02;602295;235;62467;-69
2023/10/28 04:47:16;;;;;;;;;;;;;;;20.84;61.74;96189.56;602298;233;68583;-68
2023/10/28 04:49:44;;;;;;;;;;;;;;;20.85;61.99;96190.35;602235;235;66956;-68
2023/10/28 04:52:11;;;;;;;;;;;;;;;20.83;61.75;96198.64;602296;235;62511;-68
2023/10/28 04:54:39;;;;;;;;;;;;;;;20.84;61.91;96202.09;602346;235;66584;-68
2023/10/28 04:57:09;;;;;;;;;;;;;;;20.83;60.90;96198.64;602281;235;66770;-68
2023/10/28 04:59:36;;;;;;;;;;;;;;;20.84;61.15;96204.77;602301;235;62449;-68
2023/10/28 05:02:03;;;;;;;;;;;;;;;20.83;61.52;96198.64;603436;235;66463;-68
2023/10/28 05:04:31;;;;;;;;;;;;;;;20.84;61.69;96213.59;604157;235;66234;-68
2023/10/28 05:06:58;;;;;;;;;;;;;;;20.83;61.47;96213.87;604229;235;63373;-68
2023/10/28 05:09:26;;;;;;;;;;;;;;;20.84;62.20;96212.78;604146;235;68636;-68
2023/10/28 05:11:56;;;;;;;;;;;;;;;20.83;62.50;96209.32;604145;235;66800;-68
2023/10/28 05:14:24;;;;;;;;;;;;;;;20.82;62.00;96206.95;604109;235;62510;-67
2023/10/28 05:16:55;;;;;;;;;;;;;;;20.83;61.65;96213.87;604119;235;68640;-67
2023/10/28 05:19:23;;;;;;;;;;;;;;;20.83;61.29;96227.22;604219;235;68671;-68
2023/10/28 05:21:50;;;;;;;;;;;;;;;20.83;61.22;96225.34;599426;235;62691;-68
2023/10/28 05:24:18;;;;;;;;;;;;;;;20.83;60.81;96224.55;604115;235;66490;-67
2023/10/28 05:26:46;;;;;;;;;;;;;;;20.83;61.48;96233.35;604169;235;68719;-68
2023/10/28 05:29:13;;;;;;;;;;;;;;;20.83;61.47;96236.02;604164;235;64899;-68
2023/10/28 05:31:41;;;;;;;;;;;;;;;20.83;61.17;96245.92;604211;235;68542;-68
2023/10/28 05:34:08;;;;;;;;;;;;;;;20.83;61.46;96240.58;604167;235;66518;-68
2023/10/28 05:36:36;;;;;;;;;;;;;;;20.83;61.41;96243.25;604138;235;64742;-68
2023/10/28 05:39:04;;;;;;;;;;;;;;;20.82;61.37;96258.48;604189;235;69055;-68
2023/10/28 05:41:32;;;;;;;;;;;;;;;20.82;61.16;96274.50;604127;235;68946;-68
2023/10/28 05:44:00;;;;;;;;;;;;;;;20.82;61.69;96277.17;604150;235;62462;-68
2023/10/28 05:46:27;;;;;;;;;;;;;;;20.83;61.83;96288.64;604197;235;68804;-68
2023/10/28 05:48:56;;;;;;;;;;;;;;;20.82;62.87;96281.73;604182;235;66473;-68
2023/10/28 05:51:24;;;;;;;;;;;;;;;20.82;62.93;96287.86;604144;235;64688;-68
2023/10/28 05:53:51;;;;;;;;;;;;;;;20.82;62.57;96292.41;604206;235;68741;-68
2023/10/28 05:56:19;;;;;;;;;;;;;;;20.82;62.63;96292.41;604138;235;68939;-69
2023/10/28 05:58:48;;;;;;;;;;;;;;;20.81;62.59;96293.47;604231;235;64700;-69
2023/10/28 06:01:15;;;;;;;;;;;;;;;20.81;62.20;96296.14;604124;235;68795;-69
2023/10/28 06:03:43;;;;;;;;;;;;;;;20.82;62.35;96298.54;604157;235;66207;-69
2023/10/28 06:06:11;;;;;;;;;;;;;;;20.81;62.02;96290.80;604147;235;64529;-69
2023/10/28 06:08:38;;;;;;;;;;;;;;;20.81;62.10;96288.13;604179;235;66462;-69
2023/10/28 06:11:06;;;;;;;;;;;;;;;20.82;62.05;96287.06;604171;235;68746;-69
2023/10/28 06:13:34;;;;;;;;;;;;;;;20.82;62.28;96297.75;604166;235;62606;-69
2023/10/28 06:16:01;;;;;;;;;;;;;;;20.80;62.75;96292.69;604196;235;67437;-69
2023/10/28 06:18:29;;;;;;;;;;;;;;;20.80;62.45;96290.02;604209;235;68134;-69
2023/10/28 06:20:57;;;;;;;;;;;;;;;20.80;62.47;96294.56;604164;235;62470;-69
2023/10/28 06:23:25;;;;;;;;;;;;;;;20.79;63.63;96301.78;604208;235;68379;-69
2023/10/28 06:25:53;;;;;;;;;;;;;;;20.80;58.05;96299.91;604144;235;66449;-69
2023/10/28 06:28:20;;;;;;;;;;;;;;;20.81;61.41;96306.82;604163;235;64630;-69
2023/10/28 06:30:52;;;;;;;;;;;;;;;20.82;61.73;96309.22;604067;235;68319;-69
2023/10/28 06:33:20;;;;;;;;;;;;;;;20.82;62.00;96306.55;605794;229;68474;-67
2023/10/28 06:35:47;;;;;;;;;;;;;;;20.83;62.51;96307.34;610634;229;64640;-67
2023/10/28 06:38:15;;;;;;;;;;;;;;;20.83;63.38;96318.02;611011;232;68479;-67
2023/10/28 06:40:42;;;;;;;;;;;;;;;20.83;63.08;96331.38;610948;230;66363;-67
2023/10/28 06:43:11;;;;;;;;;;;;;;;20.83;63.63;96331.38;610206;229;64689;-67
2023/10/28 06:45:39;;;;;;;;;;;;;;;20.82;63.79;96324.45;608520;229;68837;-67
2023/10/28 06:48:07;;;;;;;;;;;;;;;20.82;63.95;96316.44;604413;229;68278;-67
2023/10/28 06:50:35;;;;;;;;;;;;;;;20.84;64.20;96322.27;610395;232;65023;-67
2023/10/28 06:53:02;;;;;;;;;;;;;;;20.83;64.27;96323.36;610297;232;70061;-67
2023/10/28 06:55:30;;;;;;;;;;;;;;;20.82;63.44;96321.78;610764;232;66523;-67
2023/10/28 06:57:59;;;;;;;;;;;;;;;20.82;63.61;96314.56;610964;232;62446;-67
2023/10/28 07:00:28;;;;;;;;;;;;;;;20.84;63.89;96327.61;610906;232;66632;-68
2023/10/28 07:02:56;;;;;;;;;;;;;;;20.83;63.73;96326.82;608994;233;71177;-67
2023/10/28 07:05:24;;;;;;;;;;;;;;;20.83;62.71;96337.50;608979;233;62669;-68
2023/10/28 07:07:59;;;;;;;;;;;;;;;20.83;62.94;96344.73;609041;233;66665;-67
2023/10/28 07:10:25;;;;;;;;;;;;;;;20.84;63.64;96338.30;608859;233;68953;-68
2023/10/28 07:12:53;;;;;;;;;;;;;;;20.84;63.46;96339.11;609013;233;63511;-68
2023/10/28 07:15:21;;;;;;;;;;;;;;;20.84;63.20;96338.30;609034;233;68798;-68
2023/10/28 07:17:49;;;;;;;;;;;;;;;20.84;62.87;96343.63;609012;233;66649;-68
2023/10/28 07:20:22;;;;;;;;;;;;;;;20.85;63.50;96345.24;608987;233;64849;-68
2023/10/28 07:22:47;;;;;;;;;;;;;;;20.85;63.72;96345.24;608859;233;68871;-68
2023/10/28 07:25:16;;;;;;;;;;;;;;;20.84;63.82;96344.45;609001;233;68785;-68
2023/10/28 07:27:44;;;;;;;;;;;;;;;20.84;63.84;96339.11;608983;233;64655;-68
2023/10/28 07:30:13;;;;;;;;;;;;;;;20.84;63.49;96344.45;608978;233;68843;-68
2023/10/28 07:32:41;;;;;;;;;;;;;;;20.84;62.85;96344.45;609012;233;68461;-68
2023/10/28 07:35:09;;;;;;;;;;;;;;;20.86;63.20;96348.70;608984;233;64790;-68
2023/10/28 07:37:39;;;;;;;;;;;;;;;20.86;63.90;96352.16;608936;233;68849;-68
2023/10/28 07:40:07;;;;;;;;;;;;;;;20.85;62.05;96347.91;608957;233;66995;-68
2023/10/28 07:42:36;;;;;;;;;;;;;;;20.86;59.54;96343.36;609006;233;64902;-68
2023/10/28 07:45:04;;;;;;;;;;;;;;;20.88;60.13;96347.34;608969;233;69378;-68
2023/10/28 07:47:33;;;;;;;;;;;;;;;20.88;59.02;96339.33;608966;233;68721;-68
2023/10/28 07:50:02;;;;;;;;;;;;;;;20.89;58.96;96340.11;608961;233;64729;-68
2023/10/28 07:52:30;;;;;;;;;;;;;;;20.90;59.42;96349.70;608985;233;66682;-68
2023/10/28 07:54:58;;;;;;;;;;;;;;;20.90;62.11;96350.53;609027;233;68666;-69
2023/10/28 07:57:26;;;;;;;;;;;;;;;20.90;64.26;96353.20;607458;229;62713;-69
2023/10/28 07:59:55;;;;;;;;;;;;;;;20.88;64.46;96347.34;605422;229;68509;-68
2023/10/28 08:02:23;;;;;;;;;;;;;;;20.88;64.25;96359.91;602464;229;68691;-68
2023/10/28 08:04:52;;;;;;;;;;;;;;;20.87;64.16;96353.77;608713;233;64563;-68
2023/10/28 08:07:20;;;;;;;;;;;;;;;20.87;63.90;96353.77;608929;233;68875;-69
2023/10/28 08:09:47;;;;;;;;;;;;;;;20.87;62.81;96356.44;608914;233;68656;-68
2023/10/28 08:12:15;;;;;;;;;;;;;;;20.87;63.99;96356.44;608988;233;64554;-68
2023/10/28 08:14:48;;;;;;;;;;;;;;;20.88;64.51;96358.02;609005;233;68939;-68
2023/10/28 08:17:16;;;;;;;;;;;;;;;20.88;64.47;96354.56;608929;233;66701;-68
2023/10/28 08:19:43;;;;;;;;;;;;;;;20.86;64.42;96352.16;608957;230;64627;-68
2023/10/28 08:22:12;;;;;;;;;;;;;;;20.87;64.33;96343.09;609016;233;68593;-68
2023/10/28 08:24:39;;;;;;;;;;;;;;;20.86;63.90;96344.15;608966;233;66488;-68
2023/10/28 08:27:08;;;;;;;;;;;;;;;20.86;63.31;96349.49;608989;233;64792;-68
2023/10/28 08:29:35;;;;;;;;;;;;;;;20.87;63.21;96337.75;608968;233;66433;-68
2023/10/28 08:32:03;;;;;;;;;;;;;;;20.88;63.29;96330.52;608945;233;69422;-68
2023/10/28 08:34:31;;;;;;;;;;;;;;;20.87;63.84;96329.73;609046;230;64852;-69
2023/10/28 08:36:59;;;;;;;;;;;;;;;20.87;63.20;96331.59;608995;233;68596;-68
2023/10/28 08:39:28;;;;;;;;;;;;;;;20.88;59.85;96330.52;609006;233;66482;-68
2023/10/28 08:41:56;;;;;;;;;;;;;;;20.89;61.91;96332.89;609011;233;64809;-69
2023/10/28 08:44:30;;;;;;;;;;;;;;;20.89;62.89;96332.89;609020;233;69016;-68
2023/10/28 08:46:58;;;;;;;;;;;;;;;20.89;62.74;96340.91;609091;233;68339;-69
2023/10/28 08:49:26;;;;;;;;;;;;;;;20.90;64.17;96336.35;608949;233;65838;-70
2023/10/28 08:51:58;;;;;;;;;;;;;;;20.88;64.60;96331.31;608999;233;68680;-69
2023/10/28 08:54:28;;;;;;;;;;;;;;;20.87;64.51;96326.25;608974;233;69090;-69
2023/10/28 08:56:59;;;;;;;;;;;;;;;20.87;64.17;96328.91;609007;233;64737;-69
2023/10/28 08:59:28;;;;;;;;;;;;;;;20.87;64.19;96324.39;609007;233;68788;-69
2023/10/28 09:01:57;;;;;;;;;;;;;;;20.86;63.54;96330.80;610082;232;69472;-69
2023/10/28 09:04:24;;;;;;;;;;;;;;;20.87;63.75;96335.08;610932;232;64757;-69
2023/10/28 09:06:52;;;;;;;;;;;;;;;20.87;63.66;96335.08;610964;232;68657;-69
2023/10/28 09:09:25;;;;;;;;;;;;;;;20.88;63.29;96333.20;610941;232;68639;-69
2023/10/28 09:11:50;;;;;;;;;;;;;;;20.89;64.23;96334.77;610798;232;64527;-69
2023/10/28 09:14:18;;;;;;;;;;;;;;;20.88;63.29;96333.98;610940;232;67135;-69
2023/10/28 09:16:46;;;;;;;;;;;;;;;20.88;63.26;96336.66;610958;232;69577;-69
2023/10/28 09:19:20;;;;;;;;;;;;;;;20.90;63.42;96337.17;610924;232;65774;-69
2023/10/28 09:21:48;;;;;;;;;;;;;;;20.89;64.41;96334.77;610967;232;69053;-67
2023/10/28 09:24:16;;;;;;;;;;;;;;;20.87;64.53;96327.06;610960;232;68724;-67
2023/10/28 09:26:46;;;;;;;;;;;;;;;20.87;63.66;96327.06;610928;232;63575;-67
2023/10/28 09:29:15;;;;;;;;;;;;;;;20.88;63.00;96330.52;611028;232;68776;-67
2023/10/28 09:31:42;;;;;;;;;;;;;;;20.88;63.24;96320.63;608337;232;66446;-67
2023/10/28 09:34:12;;;;;;;;;;;;;;;20.87;62.68;96316.38;610953;232;64908;-67
2023/10/28 09:36:39;;;;;;;;;;;;;;;20.88;62.32;96320.63;610984;230;66564;-68
2023/10/28 09:39:07;;;;;;;;;;;;;;;20.89;63.02;96319.54;610939;232;66491;-68
2023/10/28 09:41:35;;;;;;;;;;;;;;;20.89;63.66;96314.20;610966;232;64882;-68
2023/10/28 09:44:04;;;;;;;;;;;;;;;20.89;64.60;96321.42;610948;232;68801;-68
2023/10/28 09:46:35;;;;;;;;;;;;;;;20.89;64.14;96313.41;610956;232;68705;-68
2023/10/28 09:49:07;;;;;;;;;;;;;;;20.89;64.59;96313.41;610954;232;62745;-68
2023/10/28 09:51:36;;;;;;;;;;;;;;;20.88;64.65;96317.96;610945;232;68781;-68
2023/10/28 09:54:05;;;;;;;;;;;;;;;20.88;64.47;96314.50;610946;232;68526;-68
2023/10/28 09:56:39;;;;;;;;;;;;;;;20.87;64.30;96319.05;610999;232;64756;-68
2023/10/28 09:59:05;;;;;;;;;;;;;;;20.88;64.28;96317.96;610658;232;68741;-68
2023/10/28 10:01:34;;;;;;;;;;;;;;;20.88;64.83;96317.96;610060;232;68714;-68
2023/10/28 10:04:04;;;;;;;;;;;;;;;20.87;61.78;96321.72;609019;233;64829;-67
2023/10/28 10:06:31;;;;;;;;;;;;;;;20.89;60.74;96311.53;608823;233;66320;-68
2023/10/28 10:09:00;;;;;;;;;;;;;;;20.90;61.00;96306.97;609026;233;66767;-68
2023/10/28 10:11:28;;;;;;;;;;;;;;;20.90;62.09;96302.45;608998;233;62691;-68
2023/10/28 10:13:55;;;;;;;;;;;;;;;20.90;62.01;96299.78;608975;233;68990;-68
2023/10/28 10:16:38;;;;;;;;;;;;;;;20.90;60.96;96296.29;608998;233;68716;-68
2023/10/28 10:19:07;;;;;;;;;;;;;;;20.91;60.58;96297.90;594815;233;64629;-68
2023/10/28 10:21:35;;;;;;;;;;;;;;;20.92;63.41;96296.80;608964;232;68713;-68
2023/10/28 10:24:08;;;;;;;;;;;;;;;20.91;64.63;96289.89;609081;233;68356;-68
2023/10/28 10:26:34;;;;;;;;;;;;;;;20.89;64.07;96282.15;608925;233;64974;-68
2023/10/28 10:29:08;;;;;;;;;;;;;;;20.89;64.11;96282.15;609032;233;68093;-68
2023/10/28 10:31:33;;;;;;;;;;;;;;;20.88;64.15;96283.23;608899;233;69389;-68
2023/10/28 10:34:10;;;;;;;;;;;;;;;20.88;64.12;96277.90;609016;233;64708;-68
2023/10/28 10:36:41;;;;;;;;;;;;;;;20.89;64.08;96281.36;609073;233;69586;-67
2023/10/28 10:39:16;;;;;;;;;;;;;;;20.88;64.98;96283.23;609088;233;68764;-67
2023/10/28 10:41:44;;;;;;;;;;;;;;;20.87;60.59;96287.00;609012;233;62456;-67
2023/10/28 10:44:30;;;;;;;;;;;;;;;20.89;60.36;96290.16;609042;233;68694;-67
2023/10/28 10:46:58;;;;;;;;;;;;;;;20.90;62.71;96280.27;609054;233;68608;-67
2023/10/28 10:49:25;;;;;;;;;;;;;;;20.90;62.75;96282.94;609008;233;62463;-67
2023/10/28 10:51:53;;;;;;;;;;;;;;;20.89;62.78;96282.15;609094;233;66509;-67
2023/10/28 10:54:21;;;;;;;;;;;;;;;20.89;63.22;96274.14;608991;233;68742;-67
2023/10/28 10:56:51;;;;;;;;;;;;;;;20.90;64.36;96273.07;609012;233;64708;-67
2023/10/28 10:59:19;;;;;;;;;;;;;;;20.89;64.38;96270.67;609013;233;66472;-67
2023/10/28 11:01:47;;;;;;;;;;;;;;;20.89;64.42;96271.47;609956;232;68650;-67
2023/10/28 11:04:14;;;;;;;;;;;;;;;20.88;64.33;96264.55;610963;232;64656;-68
2023/10/28 11:06:42;;;;;;;;;;;;;;;20.88;64.08;96264.55;611008;232;66701;-67
2023/10/28 11:09:09;;;;;;;;;;;;;;;20.89;63.93;96266.13;610920;232;66404;-67
2023/10/28 11:11:38;;;;;;;;;;;;;;;20.88;64.51;96259.20;610925;232;62421;-67
2023/10/28 11:14:06;;;;;;;;;;;;;;;20.88;60.58;96256.53;610931;232;68848;-67
2023/10/28 11:16:34;;;;;;;;;;;;;;;20.90;61.57;96258.90;610963;232;66295;-67
2023/10/28 11:19:05;;;;;;;;;;;;;;;20.90;61.52;96261.57;611012;232;64992;-67
2023/10/28 11:21:33;;;;;;;;;;;;;;;20.91;62.44;96266.64;610952;232;68556;-68
2023/10/28 11:24:00;;;;;;;;;;;;;;;20.90;62.53;96257.05;610919;232;68904;-68
2023/10/28 11:26:28;;;;;;;;;;;;;;;20.92;63.00;96259.41;610937;232;62857;-68
2023/10/28 11:28:59;;;;;;;;;;;;;;;20.91;64.60;96253.28;610960;232;66415;-69
2023/10/28 11:31:30;;;;;;;;;;;;;;;20.91;64.83;96247.16;610987;232;66715;-68
2023/10/28 11:33:58;;;;;;;;;;;;;;;20.90;64.83;96246.36;610880;232;62674;-68
2023/10/28 11:36:26;;;;;;;;;;;;;;;20.89;64.64;96244.76;610957;232;68665;-68
2023/10/28 11:38:57;;;;;;;;;;;;;;;20.89;64.37;96244.76;610963;232;66694;-68
2023/10/28 11:41:25;;;;;;;;;;;;;;;20.89;64.45;96244.76;610984;232;64958;-69
2023/10/28 11:43:52;;;;;;;;;;;;;;;20.88;63.86;96243.18;610966;232;69202;-68
2023/10/28 11:46:21;;;;;;;;;;;;;;;20.89;60.18;96255.44;610978;232;66663;-68
2023/10/28 11:48:48;;;;;;;;;;;;;;;20.91;60.64;96250.61;610919;232;64413;-68
2023/10/28 11:51:16;;;;;;;;;;;;;;;20.92;61.68;96254.86;610963;232;68835;-68
2023/10/28 11:53:44;;;;;;;;;;;;;;;20.91;62.89;96253.28;610946;232;66328;-68
2023/10/28 11:56:13;;;;;;;;;;;;;;;20.91;63.26;96255.95;610929;232;64809;-68
2023/10/28 11:58:41;;;;;;;;;;;;;;;20.92;64.99;96256.74;610974;232;66349;-68
2023/10/28 12:01:08;;;;;;;;;;;;;;;20.90;65.08;96257.05;610344;232;69569;-68
2023/10/28 12:03:36;;;;;;;;;;;;;;;20.90;64.85;96248.22;608995;233;64540;-68
2023/10/28 12:06:04;;;;;;;;;;;;;;;20.90;64.70;96251.70;609017;233;68895;-68
2023/10/28 12:08:32;;;;;;;;;;;;;;;20.90;64.61;96246.36;608956;233;66690;-68
2023/10/28 12:11:01;;;;;;;;;;;;;;;20.89;65.34;96247.42;609038;233;62373;-68
2023/10/28 12:13:31;;;;;;;;;;;;;;;20.89;60.32;96244.76;608912;233;68886;-68
2023/10/28 12:15:58;;;;;;;;;;;;;;;20.92;61.00;96243.39;608969;233;68756;-68
2023/10/28 12:18:25;;;;;;;;;;;;;;;20.92;62.64;96241.50;608937;230;64381;-69
2023/10/28 12:20:53;;;;;;;;;;;;;;;20.92;62.64;96243.39;608981;233;68648;-68
2023/10/28 12:23:22;;;;;;;;;;;;;;;20.92;63.06;96244.17;609035;233;66359;-68
2023/10/28 12:25:49;;;;;;;;;;;;;;;20.92;64.58;96236.16;608951;233;62072;-68
2023/10/28 12:28:17;;;;;;;;;;;;;;;20.91;64.99;96242.60;609010;233;66172;-68
2023/10/28 12:30:44;;;;;;;;;;;;;;;20.90;64.64;96235.69;609028;233;68389;-68
2023/10/28 12:33:12;;;;;;;;;;;;;;;20.90;64.66;96234.86;608994;233;64730;-68
2023/10/28 12:35:39;;;;;;;;;;;;;;;20.90;64.56;96241.02;609024;233;68678;-68
2023/10/28 12:38:07;;;;;;;;;;;;;;;20.90;64.62;96235.69;609019;233;68814;-68
2023/10/28 12:40:34;;;;;;;;;;;;;;;20.90;65.13;96219.66;608968;233;64589;-68
2023/10/28 12:43:02;;;;;;;;;;;;;;;20.90;61.88;96225.00;609044;230;66324;-68
2023/10/28 12:45:30;;;;;;;;;;;;;;;20.90;60.30;96222.33;609041;230;66775;-68
2023/10/28 12:47:57;;;;;;;;;;;;;;;20.92;61.41;96225.48;609020;233;65418;-68
2023/10/28 12:50:25;;;;;;;;;;;;;;;20.93;63.61;96234.31;609092;233;66344;-68
2023/10/28 12:52:52;;;;;;;;;;;;;;;20.92;65.15;96230.83;609045;233;66433;-68